ANE2007 LEMH-LEPA
Flight info
| Callsign | ANE2007 |
|---|---|
| Flight time | 0h 27m |
| Altitude | 11000 |
| Route | MAMEB |
| Aircraft | CRJX/M-SDFGIRWY/S |
Departure
| Time | 2026-04-23 10:44 |
|---|---|
| Airport | Menorca Airport (LEMH) |
Arrival
| Time | 2026-04-23 11:12 |
|---|---|
| Airport | Palma de Mallorca Airport (LEPA) |
| Time | Latitude | Longitude | Altitude | Speed | Heading |
|---|---|---|---|---|---|
| 2026-04-23 10:00 | 39.86530 | 4.22418 | 284 ft | 0 kts | 99° |
| 2026-04-23 10:37 | 39.86531 | 4.22409 | 284 ft | 2 kts | 98° |
| 2026-04-23 10:37 | 39.86534 | 4.22388 | 286 ft | 2 kts | 98° |
| 2026-04-23 10:37 | 39.86536 | 4.22367 | 288 ft | 2 kts | 108° |
| 2026-04-23 10:38 | 39.86544 | 4.22348 | 292 ft | 2 kts | 129° |
| 2026-04-23 10:38 | 39.86557 | 4.22336 | 297 ft | 2 kts | 171° |
| 2026-04-23 10:38 | 39.86571 | 4.22338 | 294 ft | 1 kts | 192° |
| 2026-04-23 10:38 | 39.86572 | 4.22338 | 294 ft | 0 kts | 192° |
| 2026-04-23 10:39 | 39.86560 | 4.22334 | 296 ft | 4 kts | 195° |
| 2026-04-23 10:40 | 39.86540 | 4.22308 | 292 ft | 4 kts | 248° |
| 2026-04-23 10:40 | 39.86537 | 4.22275 | 288 ft | 4 kts | 274° |
| 2026-04-23 10:40 | 39.86542 | 4.22237 | 294 ft | 4 kts | 279° |
| 2026-04-23 10:40 | 39.86544 | 4.22188 | 293 ft | 8 kts | 254° |
| 2026-04-23 10:41 | 39.86495 | 4.22151 | 293 ft | 11 kts | 189° |
| 2026-04-23 10:41 | 39.86395 | 4.22129 | 292 ft | 18 kts | 189° |
| 2026-04-23 10:41 | 39.86252 | 4.22100 | 294 ft | 24 kts | 189° |
| 2026-04-23 10:41 | 39.86069 | 4.22063 | 293 ft | 28 kts | 189° |
| 2026-04-23 10:42 | 39.85869 | 4.22023 | 295 ft | 30 kts | 189° |
| 2026-04-23 10:42 | 39.85657 | 4.21980 | 287 ft | 32 kts | 189° |
| 2026-04-23 10:42 | 39.85452 | 4.21937 | 282 ft | 19 kts | 189° |
| 2026-04-23 10:42 | 39.85412 | 4.21851 | 281 ft | 12 kts | 307° |
| 2026-04-23 10:43 | 39.85478 | 4.21810 | 283 ft | 10 kts | 338° |
| 2026-04-23 10:43 | 39.85543 | 4.21778 | 286 ft | 12 kts | 340° |
| 2026-04-23 10:43 | 39.85643 | 4.21739 | 291 ft | 14 kts | 1° |
| 2026-04-23 10:43 | 39.85790 | 4.21768 | 298 ft | 45 kts | 9° |
| 2026-04-23 10:44 | 39.86335 | 4.21880 | 301 ft | 114 kts | 8° |
| 2026-04-23 10:44 | 39.87314 | 4.22075 | 327 ft | 166 kts | 8° |
| 2026-04-23 10:44 | 39.88492 | 4.22269 | 978 ft | 173 kts | 8° |
| 2026-04-23 10:44 | 39.89714 | 4.22444 | 1750 ft | 181 kts | 12° |
| 2026-04-23 10:45 | 39.91044 | 4.22739 | 2361 ft | 202 kts | 16° |
| 2026-04-23 10:45 | 39.92426 | 4.23143 | 3340 ft | 200 kts | 17° |
| 2026-04-23 10:45 | 39.93760 | 4.23568 | 4394 ft | 197 kts | 14° |
| 2026-04-23 10:45 | 39.95120 | 4.23986 | 5188 ft | 203 kts | 11° |
| 2026-04-23 10:46 | 39.96524 | 4.24360 | 5967 ft | 209 kts | 9° |
| 2026-04-23 10:46 | 39.97934 | 4.24923 | 6699 ft | 217 kts | 24° |
| 2026-04-23 10:46 | 39.99199 | 4.26001 | 7521 ft | 222 kts | 42° |
| 2026-04-23 10:46 | 39.99950 | 4.27796 | 8228 ft | 235 kts | 74° |
| 2026-04-23 10:47 | 39.99898 | 4.30012 | 8705 ft | 257 kts | 106° |
| 2026-04-23 10:47 | 39.98970 | 4.32022 | 9357 ft | 263 kts | 137° |
| 2026-04-23 10:47 | 39.97414 | 4.33235 | 10068 ft | 264 kts | 167° |
| 2026-04-23 10:47 | 39.95604 | 4.33372 | 10611 ft | 264 kts | 197° |
| 2026-04-23 10:48 | 39.93938 | 4.32400 | 10943 ft | 274 kts | 224° |
| 2026-04-23 10:48 | 39.92539 | 4.30538 | 11122 ft | 296 kts | 236° |
| 2026-04-23 10:48 | 39.91323 | 4.28274 | 11205 ft | 322 kts | 240° |
| 2026-04-23 10:48 | 39.90086 | 4.25709 | 11234 ft | 347 kts | 241° |
| 2026-04-23 10:49 | 39.88768 | 4.22938 | 11242 ft | 372 kts | 241° |
| 2026-04-23 10:49 | 39.87318 | 4.20024 | 11237 ft | 392 kts | 239° |
| 2026-04-23 10:49 | 39.86429 | 4.18423 | 12150 ft | 237 kts | 237° |
| 2026-04-23 10:49 | 39.85401 | 4.16588 | 11619 ft | 266 kts | 239° |
| 2026-04-23 10:50 | 39.84327 | 4.14517 | 11393 ft | 284 kts | 239° |
| 2026-04-23 10:50 | 39.83210 | 4.12330 | 11284 ft | 295 kts | 240° |
| 2026-04-23 10:50 | 39.82056 | 4.10089 | 11236 ft | 301 kts | 239° |
| 2026-04-23 10:50 | 39.80862 | 4.07817 | 11207 ft | 306 kts | 239° |
| 2026-04-23 10:51 | 39.79645 | 4.05504 | 11192 ft | 314 kts | 238° |
| 2026-04-23 10:51 | 39.78394 | 4.03121 | 11187 ft | 324 kts | 238° |
| 2026-04-23 10:51 | 39.77104 | 4.00666 | 11181 ft | 332 kts | 238° |
| 2026-04-23 10:51 | 39.75794 | 3.98149 | 11179 ft | 339 kts | 239° |
| 2026-04-23 10:52 | 39.74543 | 3.95518 | 11176 ft | 344 kts | 242° |
| 2026-04-23 10:52 | 39.73338 | 3.92806 | 11164 ft | 348 kts | 242° |
| 2026-04-23 10:52 | 39.72114 | 3.90066 | 11165 ft | 352 kts | 242° |
| 2026-04-23 10:52 | 39.70874 | 3.87313 | 11163 ft | 355 kts | 242° |
| 2026-04-23 10:53 | 39.69625 | 3.84567 | 11161 ft | 358 kts | 242° |
| 2026-04-23 10:53 | 39.68355 | 3.81771 | 11160 ft | 360 kts | 242° |
| 2026-04-23 10:53 | 39.67078 | 3.78961 | 11150 ft | 361 kts | 242° |
| 2026-04-23 10:53 | 39.65801 | 3.76155 | 11153 ft | 361 kts | 242° |
| 2026-04-23 10:54 | 39.64526 | 3.73347 | 11152 ft | 361 kts | 242° |
| 2026-04-23 10:54 | 39.63248 | 3.70542 | 11152 ft | 361 kts | 242° |
| 2026-04-23 10:54 | 39.61970 | 3.67730 | 11155 ft | 361 kts | 242° |
| 2026-04-23 10:54 | 39.60692 | 3.64926 | 11149 ft | 361 kts | 242° |
| 2026-04-23 10:55 | 39.59432 | 3.62160 | 11150 ft | 361 kts | 242° |
| 2026-04-23 10:55 | 39.58150 | 3.59357 | 11150 ft | 361 kts | 242° |
| 2026-04-23 10:55 | 39.56869 | 3.56553 | 11147 ft | 361 kts | 242° |
| 2026-04-23 10:55 | 39.55588 | 3.53753 | 11146 ft | 361 kts | 242° |
| 2026-04-23 10:56 | 39.54305 | 3.50950 | 11149 ft | 361 kts | 242° |
| 2026-04-23 10:56 | 39.53034 | 3.48177 | 11147 ft | 351 kts | 242° |
| 2026-04-23 10:56 | 39.51825 | 3.45533 | 11064 ft | 331 kts | 242° |
| 2026-04-23 10:56 | 39.50677 | 3.43037 | 10924 ft | 313 kts | 242° |
| 2026-04-23 10:57 | 39.49589 | 3.40670 | 10777 ft | 298 kts | 242° |
| 2026-04-23 10:57 | 39.48551 | 3.38403 | 10615 ft | 286 kts | 242° |
| 2026-04-23 10:57 | 39.47550 | 3.36231 | 10391 ft | 278 kts | 242° |
| 2026-04-23 10:57 | 39.46576 | 3.34119 | 10040 ft | 276 kts | 242° |
| 2026-04-23 10:58 | 39.45594 | 3.31989 | 9597 ft | 275 kts | 242° |
| 2026-04-23 10:58 | 39.44618 | 3.29864 | 9155 ft | 274 kts | 241° |
| 2026-04-23 10:58 | 39.43641 | 3.27745 | 8708 ft | 274 kts | 241° |
| 2026-04-23 10:58 | 39.42814 | 3.25538 | 8275 ft | 271 kts | 259° |
| 2026-04-23 10:59 | 39.42658 | 3.23124 | 7863 ft | 269 kts | 270° |
| 2026-04-23 10:59 | 39.42688 | 3.20699 | 7431 ft | 271 kts | 272° |
| 2026-04-23 10:59 | 39.42787 | 3.18287 | 7183 ft | 268 kts | 273° |
| 2026-04-23 10:59 | 39.42882 | 3.15858 | 6800 ft | 273 kts | 273° |
| 2026-04-23 11:00 | 39.42971 | 3.13395 | 6512 ft | 273 kts | 271° |
| 2026-04-23 11:00 | 39.43023 | 3.10943 | 6189 ft | 274 kts | 271° |
| 2026-04-23 11:00 | 39.43067 | 3.08472 | 5874 ft | 275 kts | 270° |
| 2026-04-23 11:00 | 39.43107 | 3.05996 | 5532 ft | 276 kts | 271° |
| 2026-04-23 11:01 | 39.43144 | 3.03510 | 5236 ft | 275 kts | 271° |
| 2026-04-23 11:01 | 39.43178 | 3.01039 | 4929 ft | 275 kts | 271° |
| 2026-04-23 11:01 | 39.43223 | 2.98566 | 4655 ft | 275 kts | 271° |
| 2026-04-23 11:01 | 39.43260 | 2.96094 | 4388 ft | 276 kts | 271° |
| 2026-04-23 11:02 | 39.43301 | 2.93635 | 4156 ft | 277 kts | 271° |
| 2026-04-23 11:02 | 39.43335 | 2.91151 | 3987 ft | 275 kts | 271° |
| 2026-04-23 11:02 | 39.43373 | 2.88670 | 3896 ft | 277 kts | 271° |
| 2026-04-23 11:02 | 39.43415 | 2.86119 | 3726 ft | 289 kts | 271° |
| 2026-04-23 11:03 | 39.43460 | 2.83532 | 3588 ft | 285 kts | 271° |
| 2026-04-23 11:03 | 39.43491 | 2.80988 | 3424 ft | 281 kts | 271° |
| 2026-04-23 11:03 | 39.43517 | 2.78484 | 3259 ft | 276 kts | 271° |
| 2026-04-23 11:03 | 39.43534 | 2.76019 | 3117 ft | 271 kts | 270° |
| 2026-04-23 11:04 | 39.43406 | 2.73612 | 3072 ft | 265 kts | 262° |
| 2026-04-23 11:04 | 39.43114 | 2.71280 | 3025 ft | 259 kts | 259° |
| 2026-04-23 11:04 | 39.42793 | 2.69007 | 2943 ft | 255 kts | 259° |
| 2026-04-23 11:04 | 39.42478 | 2.66756 | 2792 ft | 253 kts | 259° |
| 2026-04-23 11:05 | 39.42163 | 2.64528 | 2653 ft | 249 kts | 259° |
| 2026-04-23 11:05 | 39.41853 | 2.62351 | 2489 ft | 242 kts | 259° |
| 2026-04-23 11:05 | 39.41552 | 2.60244 | 2348 ft | 236 kts | 259° |
| 2026-04-23 11:05 | 39.41253 | 2.58179 | 2185 ft | 232 kts | 259° |
| 2026-04-23 11:06 | 39.41222 | 2.54247 | 1787 ft | 213 kts | 303° |
| 2026-04-23 11:06 | 39.42267 | 2.53105 | 1703 ft | 188 kts | 350° |
| 2026-04-23 11:06 | 39.43473 | 2.53209 | 1722 ft | 169 kts | 20° |
| 2026-04-23 11:07 | 39.44569 | 2.53578 | 1722 ft | 158 kts | 20° |
| 2026-04-23 11:07 | 39.45633 | 2.53947 | 1706 ft | 157 kts | 21° |
| 2026-04-23 11:07 | 39.46586 | 2.54457 | 1657 ft | 142 kts | 45° |
| 2026-04-23 11:07 | 39.47009 | 2.55529 | 1597 ft | 127 kts | 65° |
| 2026-04-23 11:08 | 39.47436 | 2.56491 | 1492 ft | 119 kts | 59° |
| 2026-04-23 11:08 | 39.47908 | 2.57333 | 1354 ft | 113 kts | 55° |
| 2026-04-23 11:08 | 39.48388 | 2.58184 | 1409 ft | 120 kts | 55° |
| 2026-04-23 11:08 | 39.48902 | 2.59086 | 1487 ft | 129 kts | 55° |
| 2026-04-23 11:09 | 39.49453 | 2.60019 | 1497 ft | 131 kts | 54° |
| 2026-04-23 11:09 | 39.49982 | 2.61008 | 1464 ft | 136 kts | 58° |
| 2026-04-23 11:09 | 39.50488 | 2.62043 | 1414 ft | 134 kts | 61° |
| 2026-04-23 11:09 | 39.50961 | 2.63081 | 1308 ft | 134 kts | 62° |
| 2026-04-23 11:10 | 39.51425 | 2.64123 | 1236 ft | 134 kts | 61° |
| 2026-04-23 11:10 | 39.51892 | 2.65166 | 1123 ft | 134 kts | 60° |
| 2026-04-23 11:10 | 39.52377 | 2.66207 | 981 ft | 134 kts | 58° |
| 2026-04-23 11:10 | 39.52908 | 2.67184 | 838 ft | 131 kts | 58° |
| 2026-04-23 11:11 | 39.53364 | 2.68198 | 673 ft | 124 kts | 61° |
| 2026-04-23 11:11 | 39.53781 | 2.69090 | 451 ft | 109 kts | 58° |
| 2026-04-23 11:11 | 39.54182 | 2.69931 | 281 ft | 111 kts | 59° |
| 2026-04-23 11:11 | 39.54589 | 2.70788 | 121 ft | 113 kts | 58° |
| 2026-04-23 11:12 | 39.54976 | 2.71610 | 29 ft | 92 kts | 58° |
| 2026-04-23 11:12 | 39.55214 | 2.72112 | 28 ft | 41 kts | 60° |
| 2026-04-23 11:12 | 39.55291 | 2.72295 | 28 ft | 13 kts | 84° |
| 2026-04-23 11:12 | 39.55237 | 2.72373 | 28 ft | 12 kts | 149° |
| 2026-04-23 11:13 | 39.55165 | 2.72433 | 28 ft | 12 kts | 137° |
| 2026-04-23 11:13 | 39.55104 | 2.72504 | 28 ft | 12 kts | 152° |
| 2026-04-23 11:13 | 39.55042 | 2.72570 | 28 ft | 11 kts | 99° |
| 2026-04-23 11:13 | 39.55068 | 2.72656 | 28 ft | 10 kts | 59° |
| 2026-04-23 11:14 | 39.55107 | 2.72736 | 28 ft | 10 kts | 58° |
| 2026-04-23 11:14 | 39.55145 | 2.72815 | 28 ft | 11 kts | 59° |
| 2026-04-23 11:14 | 39.55183 | 2.72896 | 28 ft | 11 kts | 59° |
| 2026-04-23 11:14 | 39.55222 | 2.72978 | 28 ft | 11 kts | 58° |
| 2026-04-23 11:15 | 39.55229 | 2.73026 | 28 ft | 1 kts | 134° |
| 2026-04-23 11:15 | 39.55223 | 2.73031 | 28 ft | 1 kts | 166° |
| 2026-04-23 11:15 | 39.55182 | 2.73020 | 28 ft | 8 kts | 195° |
| 2026-04-23 11:15 | 39.55166 | 2.73014 | 28 ft | 0 kts | 196° |